createdAt,value
2023-05-24T00:01:57.256Z,11.40
2023-05-24T00:04:25.407Z,11.50
2023-05-24T00:06:55.068Z,11.50
2023-05-24T00:09:21.912Z,11.60
2023-05-24T00:11:48.762Z,11.70
2023-05-24T00:14:15.606Z,11.70
2023-05-24T00:16:42.531Z,11.80
2023-05-24T00:19:11.262Z,11.80
2023-05-24T00:21:38.319Z,11.90
2023-05-24T00:24:08.037Z,11.80
2023-05-24T00:26:34.686Z,11.90
2023-05-24T00:29:01.371Z,11.90
2023-05-24T00:31:30.208Z,12.10
2023-05-24T00:33:57.482Z,12.10
2023-05-24T00:36:24.198Z,12.10
2023-05-24T00:38:51.083Z,12.10
2023-05-24T00:41:17.736Z,12.20
2023-05-24T00:43:44.462Z,12.20
2023-05-24T00:46:18.280Z,12.20
2023-05-24T00:48:45.411Z,12.30
2023-05-24T00:51:12.693Z,12.30
2023-05-24T00:53:39.401Z,12.40
2023-05-24T00:56:06.675Z,12.50
2023-05-24T00:58:33.383Z,12.50
2023-05-24T01:01:01.410Z,12.50
2023-05-24T01:03:31.623Z,12.50
2023-05-24T01:05:58.854Z,12.60
2023-05-24T01:08:31.160Z,12.50
2023-05-24T01:11:22.266Z,12.50
2023-05-24T01:14:02.866Z,12.50
2023-05-24T01:16:46.518Z,12.60
2023-05-24T01:19:43.372Z,12.60
2023-05-24T01:22:35.235Z,12.60
2023-05-24T01:25:02.197Z,12.50
2023-05-24T01:27:28.927Z,12.50
2023-05-24T01:29:55.587Z,12.50
2023-05-24T01:32:22.294Z,12.40
2023-05-24T01:34:49.044Z,12.40
2023-05-24T01:37:15.770Z,12.30
2023-05-24T01:39:42.429Z,12.20
2023-05-24T01:42:13.944Z,12.10
2023-05-24T01:44:47.942Z,12.10
2023-05-24T01:47:40.896Z,11.90
2023-05-24T01:50:14.735Z,11.80
2023-05-24T01:52:41.481Z,11.70
2023-05-24T01:55:08.581Z,11.70
2023-05-24T01:57:35.484Z,11.60
2023-05-24T02:00:05.070Z,11.50
2023-05-24T02:02:31.785Z,11.50
2023-05-24T02:04:58.898Z,11.40
2023-05-24T02:07:26.765Z,11.40
2023-05-24T02:09:53.488Z,11.30
2023-05-24T02:12:20.246Z,11.30
2023-05-24T02:14:50.924Z,11.30
2023-05-24T02:17:18.308Z,11.20
2023-05-24T02:19:45.029Z,11.20
2023-05-24T02:22:12.719Z,11.20
2023-05-24T02:24:40.421Z,11.10
2023-05-24T02:27:07.220Z,11.10
2023-05-24T02:29:33.953Z,11.00
2023-05-24T02:32:03.940Z,11.00
2023-05-24T02:34:30.699Z,11.00
2023-05-24T02:36:57.433Z,11.00
2023-05-24T02:39:24.108Z,11.00
2023-05-24T02:41:50.875Z,11.00
2023-05-24T02:44:17.621Z,11.00
2023-05-24T02:46:44.369Z,10.90
2023-05-24T02:49:11.103Z,10.90
2023-05-24T02:51:37.756Z,10.90
2023-05-24T02:54:04.499Z,10.80
2023-05-24T02:56:31.277Z,10.80
2023-05-24T02:58:58.034Z,10.80
2023-05-24T03:01:25.229Z,10.80
2023-05-24T03:03:52.055Z,10.70
2023-05-24T03:06:18.788Z,10.70
2023-05-24T03:08:45.992Z,10.70
2023-05-24T03:11:12.794Z,10.70
2023-05-24T03:13:40.143Z,10.60
2023-05-24T03:16:07.065Z,10.60
2023-05-24T03:18:33.785Z,10.60
2023-05-24T03:21:00.635Z,10.60
2023-05-24T03:23:27.600Z,10.60
2023-05-24T03:25:54.374Z,10.50
2023-05-24T03:28:22.283Z,10.50
2023-05-24T03:30:49.369Z,10.50
2023-05-24T03:33:16.163Z,10.50
2023-05-24T03:35:42.897Z,10.50
2023-05-24T03:38:09.596Z,10.50
2023-05-24T03:40:36.911Z,10.50
2023-05-24T03:43:04.593Z,10.50
2023-05-24T03:45:39.012Z,10.40
2023-05-24T03:48:06.730Z,10.40
2023-05-24T03:50:33.428Z,10.40
2023-05-24T03:53:00.182Z,10.40
2023-05-24T03:55:26.975Z,10.30
2023-05-24T03:57:53.662Z,10.30
2023-05-24T04:00:20.446Z,10.30
2023-05-24T04:02:47.887Z,10.30
2023-05-24T04:05:14.692Z,10.40
2023-05-24T04:07:41.962Z,10.30
2023-05-24T04:10:08.887Z,10.30
2023-05-24T04:12:35.742Z,10.30
2023-05-24T04:15:02.827Z,10.30
2023-05-24T04:17:30.447Z,10.30
2023-05-24T04:19:57.283Z,10.40
2023-05-24T04:22:25.705Z,10.40
2023-05-24T04:24:52.880Z,10.30
2023-05-24T04:27:20.520Z,10.40
2023-05-24T04:29:49.770Z,10.50
2023-05-24T04:32:17.932Z,10.50
2023-05-24T04:34:45.942Z,10.50
2023-05-24T04:37:17.210Z,10.60
2023-05-24T04:39:46.779Z,10.60
2023-05-24T04:42:13.610Z,10.70
2023-05-24T04:44:43.459Z,10.70
2023-05-24T04:47:10.762Z,10.80
2023-05-24T04:49:37.782Z,10.90
2023-05-24T04:52:04.754Z,10.90
2023-05-24T04:54:31.450Z,10.90
2023-05-24T04:56:58.114Z,11.00
2023-05-24T04:59:24.989Z,11.10
2023-05-24T05:01:51.979Z,11.20
2023-05-24T05:04:18.800Z,11.20
2023-05-24T05:06:45.529Z,11.20
2023-05-24T05:09:14.696Z,11.30
2023-05-24T05:11:41.562Z,11.40
2023-05-24T05:14:09.786Z,11.40
2023-05-24T05:16:36.958Z,11.50
2023-05-24T05:19:06.697Z,11.60
2023-05-24T05:21:33.421Z,11.60
2023-05-24T05:24:00.906Z,11.70
2023-05-24T05:26:28.091Z,11.80
2023-05-24T05:28:54.821Z,11.90
2023-05-24T05:31:22.110Z,11.90
2023-05-24T05:33:49.010Z,12.00
2023-05-24T05:36:16.228Z,12.10
2023-05-24T05:38:42.990Z,12.30
2023-05-24T05:41:09.910Z,12.30
2023-05-24T05:43:37.260Z,12.40
2023-05-24T05:46:04.040Z,12.60
2023-05-24T05:48:30.885Z,12.60
2023-05-24T05:50:57.554Z,12.70
2023-05-24T05:53:25.141Z,12.80
2023-05-24T05:55:52.035Z,13.00
2023-05-24T05:58:18.742Z,13.40
2023-05-24T06:00:45.628Z,14.20
2023-05-24T06:03:12.412Z,15.10
2023-05-24T06:05:39.374Z,15.90
2023-05-24T06:08:06.069Z,16.60
2023-05-24T06:10:32.771Z,17.20
2023-05-24T06:13:01.587Z,17.80
2023-05-24T06:15:28.278Z,18.40
2023-05-24T06:17:55.230Z,18.90
2023-05-24T06:20:22.031Z,19.30
2023-05-24T06:22:50.703Z,19.50
2023-05-24T06:25:20.789Z,19.60
2023-05-24T06:27:47.556Z,19.70
2023-05-24T06:30:14.479Z,20.20
2023-05-24T06:32:41.245Z,20.60
2023-05-24T06:35:08.828Z,20.90
2023-05-24T06:37:35.993Z,21.10
2023-05-24T06:40:05.248Z,21.10
2023-05-24T06:42:31.922Z,21.20
2023-05-24T06:44:58.656Z,21.50
2023-05-24T06:47:25.472Z,21.60
2023-05-24T06:49:52.347Z,21.70
2023-05-24T06:52:19.105Z,21.80
2023-05-24T06:54:45.800Z,21.90
2023-05-24T06:57:12.493Z,21.90
2023-05-24T06:59:39.305Z,22.00
2023-05-24T07:02:06.084Z,22.00
2023-05-24T07:04:32.965Z,22.00
2023-05-24T07:07:00.024Z,21.90
2023-05-24T07:09:26.836Z,21.80
2023-05-24T07:11:53.622Z,21.80
2023-05-24T07:14:20.824Z,21.80
2023-05-24T07:16:48.718Z,21.90
2023-05-24T07:19:15.739Z,21.90
2023-05-24T07:21:42.416Z,21.80
2023-05-24T07:24:09.152Z,21.50
2023-05-24T07:26:36.629Z,21.30
2023-05-24T07:29:03.310Z,21.10
2023-05-24T07:31:32.551Z,21.10
2023-05-24T07:33:59.294Z,21.00
2023-05-24T07:36:26.239Z,21.10
2023-05-24T07:38:53.195Z,21.20
2023-05-24T07:41:20.143Z,21.50
2023-05-24T07:43:47.026Z,21.60
2023-05-24T07:46:14.076Z,21.50
2023-05-24T07:48:40.774Z,21.30
2023-05-24T07:51:07.561Z,21.30
2023-05-24T07:53:34.690Z,21.40
2023-05-24T07:56:01.344Z,21.50
2023-05-24T07:58:28.022Z,21.70
2023-05-24T08:00:54.954Z,21.90
2023-05-24T08:03:21.765Z,22.10
2023-05-24T08:05:48.610Z,22.30
2023-05-24T08:08:15.609Z,22.20
2023-05-24T08:10:42.298Z,22.40
2023-05-24T08:13:11.559Z,22.70
2023-05-24T08:15:38.487Z,22.70
2023-05-24T08:18:05.339Z,22.10
2023-05-24T08:20:36.128Z,21.90
2023-05-24T08:23:02.980Z,22.10
2023-05-24T08:25:29.721Z,22.50
2023-05-24T08:27:57.680Z,22.50
2023-05-24T08:30:24.920Z,22.50
2023-05-24T08:32:52.250Z,22.60
2023-05-24T08:35:21.579Z,22.60
2023-05-24T08:37:49.711Z,22.60
2023-05-24T08:40:16.853Z,22.50
2023-05-24T08:42:43.586Z,22.50
2023-05-24T08:45:14.580Z,22.70
2023-05-24T08:47:42.354Z,22.80
2023-05-24T08:50:09.672Z,23.00
2023-05-24T08:52:36.603Z,23.20
2023-05-24T08:55:05.008Z,23.20
2023-05-24T08:57:32.558Z,23.30
2023-05-24T08:59:59.248Z,23.30
2023-05-24T09:02:26.712Z,23.30
2023-05-24T09:04:53.659Z,23.40
2023-05-24T09:07:23.678Z,23.50
2023-05-24T09:09:59.176Z,23.40
2023-05-24T09:12:36.639Z,23.50
2023-05-24T09:15:06.517Z,23.60
2023-05-24T09:17:34.319Z,23.60
2023-05-24T09:20:01.475Z,23.30
2023-05-24T09:22:30.399Z,23.20
2023-05-24T09:25:03.252Z,23.10
2023-05-24T09:27:29.955Z,22.70
2023-05-24T09:29:56.904Z,22.80
2023-05-24T09:32:24.822Z,23.10
2023-05-24T09:34:53.610Z,23.20
2023-05-24T09:37:29.951Z,23.50
2023-05-24T09:39:59.221Z,23.40
2023-05-24T09:42:30.146Z,23.50
2023-05-24T09:45:04.844Z,23.60
2023-05-24T09:47:35.505Z,23.80
2023-05-24T09:50:06.787Z,24.00
2023-05-24T09:52:36.597Z,24.00
2023-05-24T09:55:21.515Z,24.00
2023-05-24T09:57:53.203Z,24.00
2023-05-24T10:00:23.768Z,24.10
2023-05-24T10:03:07.320Z,23.70
2023-05-24T10:05:34.756Z,23.70
2023-05-24T10:08:01.752Z,23.80
2023-05-24T10:10:29.626Z,24.00
2023-05-24T10:12:56.975Z,24.20
2023-05-24T10:15:25.071Z,24.40
2023-05-24T10:17:55.100Z,24.40
2023-05-24T10:20:23.143Z,24.40
2023-05-24T10:22:53.315Z,24.40
2023-05-24T10:25:26.018Z,24.40
2023-05-24T10:28:01.543Z,24.30
2023-05-24T10:30:41.518Z,24.30
2023-05-24T10:33:08.633Z,24.40
2023-05-24T10:35:38.019Z,24.60
2023-05-24T10:38:07.946Z,24.40
2023-05-24T10:40:34.799Z,24.40
2023-05-24T10:43:05.075Z,24.50
2023-05-24T10:45:33.365Z,24.70
2023-05-24T10:48:10.217Z,24.80
2023-05-24T10:50:37.470Z,24.30
2023-05-24T10:53:13.888Z,24.00
2023-05-24T10:56:00.345Z,24.20
2023-05-24T10:58:59.424Z,24.60
2023-05-24T11:01:27.155Z,24.30
2023-05-24T11:04:04.088Z,24.30
2023-05-24T11:06:49.820Z,24.20
2023-05-24T11:09:17.396Z,23.90
2023-05-24T11:11:48.747Z,23.90
2023-05-24T11:14:19.877Z,24.00
2023-05-24T11:16:46.866Z,23.80
2023-05-24T11:19:18.551Z,24.00
2023-05-24T11:21:46.855Z,24.00
2023-05-24T11:24:13.568Z,24.00
2023-05-24T11:26:41.103Z,24.10
2023-05-24T11:29:08.052Z,24.10
2023-05-24T11:31:36.259Z,24.10
2023-05-24T11:34:09.875Z,24.20
2023-05-24T11:36:36.606Z,23.90
2023-05-24T11:39:07.313Z,24.00
2023-05-24T11:41:38.276Z,23.90
2023-05-24T11:44:05.335Z,24.00
2023-05-24T11:46:32.276Z,23.80
2023-05-24T11:48:59.409Z,23.60
2023-05-24T11:51:33.535Z,23.40
2023-05-24T11:54:00.454Z,23.40
2023-05-24T11:56:31.566Z,23.40
2023-05-24T11:59:22.663Z,23.50
2023-05-24T12:01:49.821Z,23.40
2023-05-24T12:04:16.589Z,23.10
2023-05-24T12:06:44.376Z,23.40
2023-05-24T12:09:13.529Z,23.70
2023-05-24T12:11:41.390Z,23.90
2023-05-24T12:14:14.650Z,23.90
2023-05-24T12:16:44.469Z,23.60
2023-05-24T12:19:35.065Z,23.60
2023-05-24T12:53:54.429Z,28.80
2023-05-24T12:56:22.089Z,29.00
2023-05-24T12:58:48.788Z,28.70
2023-05-24T13:01:15.565Z,28.20
2023-05-24T13:03:42.257Z,28.10
2023-05-24T13:06:08.944Z,27.90
2023-05-24T13:08:36.649Z,27.70
2023-05-24T13:11:04.365Z,27.30
2023-05-24T13:13:32.558Z,27.00
2023-05-24T13:15:59.293Z,27.20
2023-05-24T13:18:26.317Z,27.10
2023-05-24T13:20:53.185Z,27.90
2023-05-24T13:23:20.065Z,28.90
2023-05-24T13:25:47.236Z,28.80
2023-05-24T13:28:13.980Z,29.00
2023-05-24T13:30:40.894Z,29.20
2023-05-24T13:33:07.906Z,29.60
2023-05-24T13:35:34.648Z,29.60
2023-05-24T13:38:01.353Z,29.80
2023-05-24T13:40:28.150Z,29.60
2023-05-24T13:42:57.761Z,29.50
2023-05-24T13:45:25.021Z,30.40
2023-05-24T13:47:51.944Z,29.90
2023-05-24T13:50:18.808Z,28.40
2023-05-24T13:52:45.681Z,27.80
2023-05-24T13:55:13.409Z,27.80
2023-05-24T13:57:51.353Z,28.20
2023-05-24T14:00:19.143Z,28.70
2023-05-24T14:02:45.954Z,29.00
2023-05-24T14:07:42.642Z,26.50
2023-05-24T14:10:09.739Z,27.30
2023-05-24T14:12:36.504Z,27.10
2023-05-24T14:15:04.939Z,27.00
2023-05-24T14:17:31.757Z,26.60
2023-05-24T14:19:58.478Z,26.30
2023-05-24T14:22:26.017Z,26.40
2023-05-24T14:24:53.431Z,26.70
2023-05-24T14:27:20.125Z,27.30
2023-05-24T14:29:47.381Z,27.20
2023-05-24T14:32:16.826Z,27.80
2023-05-24T14:34:44.050Z,27.80
2023-05-24T14:37:10.764Z,27.50
2023-05-24T14:39:37.479Z,27.70
2023-05-24T14:42:04.317Z,27.80
2023-05-24T14:44:31.035Z,27.30
2023-05-24T14:46:57.779Z,26.30
2023-05-24T14:49:24.604Z,25.50
2023-05-24T14:51:51.349Z,25.30
2023-05-24T14:54:18.033Z,25.50
2023-05-24T14:56:44.710Z,25.90
2023-05-24T14:59:11.421Z,26.10
2023-05-24T15:01:38.250Z,26.20
2023-05-24T15:04:05.008Z,26.00
2023-05-24T15:06:34.905Z,25.50
2023-05-24T15:09:02.601Z,25.10
2023-05-24T15:11:29.600Z,25.00
2023-05-24T15:13:58.759Z,24.90
2023-05-24T15:16:26.057Z,25.30
2023-05-24T15:18:52.854Z,25.60
2023-05-24T15:21:22.411Z,25.80
2023-05-24T15:23:49.150Z,25.70
2023-05-24T15:26:16.059Z,25.30
2023-05-24T15:28:42.760Z,24.50
2023-05-24T15:31:10.079Z,25.00
2023-05-24T15:33:37.033Z,25.50
2023-05-24T15:36:04.554Z,25.70
2023-05-24T15:38:31.387Z,25.70
2023-05-24T15:40:58.124Z,25.60
2023-05-24T15:43:24.836Z,25.20
2023-05-24T15:45:51.626Z,25.20
2023-05-24T15:48:18.385Z,25.00
2023-05-24T15:51:09.388Z,25.20
2023-05-24T15:53:32.453Z,25.40
2023-05-24T15:55:59.744Z,24.90
2023-05-24T15:58:26.419Z,24.90
2023-05-24T16:00:54.405Z,24.30
2023-05-24T16:03:21.155Z,24.40
2023-05-24T16:05:49.370Z,24.30
2023-05-24T16:08:17.012Z,24.50
2023-05-24T16:10:44.562Z,24.50
2023-05-24T16:13:11.758Z,24.30
2023-05-24T16:15:40.902Z,24.10
2023-05-24T16:18:08.300Z,24.10
2023-05-24T16:20:35.486Z,24.10
2023-05-24T16:23:03.562Z,23.90
2023-05-24T16:25:30.302Z,23.80
2023-05-24T16:27:57.403Z,23.30
2023-05-24T16:30:24.227Z,23.40
2023-05-24T16:32:51.099Z,23.40
2023-05-24T16:35:17.837Z,23.40
2023-05-24T16:37:44.554Z,23.30
2023-05-24T16:40:12.341Z,22.90
2023-05-24T16:42:39.066Z,23.20
2023-05-24T16:45:06.391Z,23.20
2023-05-24T16:47:33.265Z,23.20
2023-05-24T16:49:59.980Z,23.20
2023-05-24T16:52:26.724Z,22.90
2023-05-24T16:54:53.472Z,22.80
2023-05-24T16:57:20.406Z,22.60
2023-05-24T16:59:50.607Z,22.40
2023-05-24T17:02:17.546Z,22.50
2023-05-24T17:04:44.219Z,22.50
2023-05-24T17:07:11.124Z,22.60
2023-05-24T17:09:38.058Z,22.50
2023-05-24T17:12:05.007Z,22.50
2023-05-24T17:14:31.705Z,22.60
2023-05-24T17:16:58.375Z,22.50
2023-05-24T17:19:25.251Z,22.60
2023-05-24T17:21:51.999Z,22.50
2023-05-24T17:24:18.686Z,22.40
2023-05-24T17:26:45.438Z,22.50
2023-05-24T17:29:12.380Z,22.20
2023-05-24T17:31:39.499Z,22.20
2023-05-24T17:34:06.352Z,22.00
2023-05-24T17:36:33.729Z,22.00
2023-05-24T17:39:00.634Z,21.90
2023-05-24T17:41:27.530Z,21.90
2023-05-24T17:43:54.301Z,21.80
2023-05-24T17:46:21.396Z,21.70
2023-05-24T17:48:48.224Z,21.60
2023-05-24T17:51:16.935Z,21.50
2023-05-24T17:53:44.939Z,21.50
2023-05-24T17:56:11.686Z,21.30
2023-05-24T17:58:38.517Z,21.20
2023-05-24T18:01:06.079Z,21.10
2023-05-24T18:03:33.541Z,21.00
2023-05-24T18:06:01.144Z,21.10
2023-05-24T18:08:27.961Z,21.00
2023-05-24T18:10:54.743Z,20.90
2023-05-24T18:13:21.707Z,20.90
2023-05-24T18:15:49.429Z,20.90
2023-05-24T18:18:16.255Z,20.80
2023-05-24T18:20:43.616Z,20.90
2023-05-24T18:23:10.594Z,20.70
2023-05-24T18:25:37.341Z,20.60
2023-05-24T18:28:04.077Z,20.40
2023-05-24T18:30:30.790Z,20.50
2023-05-24T18:33:07.036Z,20.40
2023-05-24T18:35:34.822Z,20.30
2023-05-24T18:38:01.853Z,20.10
2023-05-24T18:40:28.591Z,20.10
2023-05-24T18:42:55.323Z,19.90
2023-05-24T18:45:22.759Z,19.90
2023-05-24T18:47:49.510Z,19.90
2023-05-24T18:50:16.268Z,19.80
2023-05-24T18:52:43.009Z,19.60
2023-05-24T18:55:12.535Z,19.60
2023-05-24T18:57:39.445Z,19.50
2023-05-24T19:00:07.330Z,19.40
2023-05-24T19:02:44.100Z,19.40
2023-05-24T19:05:10.956Z,19.40
2023-05-24T19:07:37.678Z,19.30
2023-05-24T19:10:04.816Z,19.20
2023-05-24T19:12:31.530Z,19.10
2023-05-24T19:14:58.459Z,19.00
2023-05-24T19:17:25.526Z,18.80
2023-05-24T19:19:52.428Z,18.70
2023-05-24T19:22:19.320Z,18.70
2023-05-24T19:24:46.338Z,18.60
2023-05-24T19:27:13.286Z,18.50
2023-05-24T19:29:40.143Z,18.40
2023-05-24T19:32:07.386Z,18.30
2023-05-24T19:34:35.323Z,18.20
2023-05-24T19:37:02.289Z,18.00
2023-05-24T19:39:29.634Z,17.90
2023-05-24T19:41:56.308Z,17.90
2023-05-24T19:44:23.088Z,17.80
2023-05-24T19:46:49.881Z,17.70
2023-05-24T19:49:16.562Z,17.50
2023-05-24T19:51:43.222Z,17.40
2023-05-24T19:54:09.952Z,17.20
2023-05-24T19:56:37.156Z,17.20
2023-05-24T19:59:03.970Z,17.10
2023-05-24T20:01:30.917Z,16.90
2023-05-24T20:03:57.822Z,16.80
2023-05-24T20:06:24.909Z,16.80
2023-05-24T20:08:52.442Z,16.70
2023-05-24T20:11:19.370Z,16.60
2023-05-24T20:13:46.186Z,16.50
2023-05-24T20:16:13.223Z,16.40
2023-05-24T20:18:40.064Z,16.40
2023-05-24T20:21:06.795Z,16.30
2023-05-24T20:23:33.520Z,16.20
2023-05-24T20:26:00.887Z,16.10
2023-05-24T20:28:31.598Z,16.10
2023-05-24T20:30:58.970Z,16.00
2023-05-24T20:33:25.825Z,15.90
2023-05-24T20:35:54.055Z,15.90
2023-05-24T20:38:21.413Z,15.70
2023-05-24T20:40:48.296Z,15.70
2023-05-24T20:43:14.999Z,15.60
2023-05-24T20:45:41.953Z,15.50
2023-05-24T20:48:08.891Z,15.40
2023-05-24T20:50:35.632Z,15.40
2023-05-24T20:53:02.461Z,15.30
2023-05-24T20:55:29.117Z,15.30
2023-05-24T20:57:55.788Z,15.20
2023-05-24T21:00:22.499Z,15.20
2023-05-24T21:02:49.189Z,15.10
2023-05-24T21:05:16.055Z,15.10
2023-05-24T21:07:42.841Z,15.00
2023-05-24T21:10:09.818Z,14.90
2023-05-24T21:12:36.598Z,14.90
2023-05-24T21:15:03.474Z,14.80
2023-05-24T21:17:30.682Z,14.80
2023-05-24T21:19:57.440Z,14.80
2023-05-24T21:22:26.263Z,14.70
2023-05-24T21:24:52.950Z,14.60
2023-05-24T21:27:19.812Z,14.50
2023-05-24T21:29:48.519Z,14.50
2023-05-24T21:32:15.303Z,14.40
2023-05-24T21:34:42.051Z,14.40
2023-05-24T21:37:08.862Z,14.30
2023-05-24T21:39:35.671Z,14.20
2023-05-24T21:42:02.560Z,14.10
2023-05-24T21:44:29.298Z,14.00
2023-05-24T21:46:56.280Z,14.00
2023-05-24T21:49:23.103Z,13.90
2023-05-24T21:51:49.870Z,13.80
2023-05-24T21:54:16.630Z,13.60
2023-05-24T21:56:43.348Z,13.60
2023-05-24T21:59:10.085Z,13.60
2023-05-24T22:01:36.913Z,13.40
2023-05-24T22:04:03.714Z,13.30
2023-05-24T22:06:31.052Z,13.20
2023-05-24T22:09:02.051Z,13.30
2023-05-24T22:11:29.327Z,13.10
2023-05-24T22:13:56.611Z,13.00
2023-05-24T22:16:23.713Z,12.90
2023-05-24T22:18:52.772Z,12.90
2023-05-24T22:21:21.591Z,12.80
2023-05-24T22:23:49.148Z,12.80
2023-05-24T22:26:16.920Z,12.70
2023-05-24T22:28:50.790Z,12.70
2023-05-24T22:31:18.039Z,12.70
2023-05-24T22:33:44.872Z,12.60
2023-05-24T22:36:12.408Z,12.60
2023-05-24T22:38:39.742Z,12.60
2023-05-24T22:41:06.648Z,12.50
2023-05-24T22:43:33.423Z,12.50
2023-05-24T22:46:00.188Z,12.40
2023-05-24T22:48:26.902Z,12.40
2023-05-24T22:50:57.054Z,12.30
2023-05-24T22:53:24.064Z,12.20
2023-05-24T22:55:50.792Z,12.20
2023-05-24T22:58:21.001Z,12.20
2023-05-24T23:00:47.752Z,12.10
2023-05-24T23:03:14.457Z,12.20
2023-05-24T23:05:41.730Z,12.10
2023-05-24T23:08:13.157Z,12.00
2023-05-24T23:10:45.713Z,12.00
2023-05-24T23:13:16.879Z,12.00
2023-05-24T23:15:45.102Z,12.00
2023-05-24T23:18:16.056Z,11.90
2023-05-24T23:20:44.319Z,11.90
2023-05-24T23:23:11.202Z,12.00
2023-05-24T23:25:38.021Z,11.90
2023-05-24T23:28:04.965Z,11.90
2023-05-24T23:30:31.700Z,11.90
2023-05-24T23:32:59.310Z,11.90
2023-05-24T23:35:26.086Z,11.90
2023-05-24T23:37:53.780Z,11.80
2023-05-24T23:40:20.815Z,11.70
2023-05-24T23:42:47.579Z,11.70
2023-05-24T23:45:15.588Z,11.70
2023-05-24T23:47:42.451Z,11.70
2023-05-24T23:50:09.733Z,11.60
2023-05-24T23:52:36.467Z,11.60
2023-05-24T23:55:03.533Z,11.60
2023-05-24T23:57:30.240Z,11.60
2023-05-24T23:59:56.909Z,11.60
